Aviation Digital Data Service (ADDS)

Output produced by TAFs form (0150 UTC 18 October 2017)
found at http://www.aviationweather.gov/adds/tafs/
 
METAR text: KABQ 180052Z 22004KT 10SM FEW250 21/M06 A3020 RMK AO2 SLP174 T02111056
Conditions at: KABQ (ALBUQUERQUE , NM, US) observed 0052 UTC 18 October 2017
Temperature: 21.1°C (70°F)
Dewpoint: -5.6°C (22°F) [RH = 16%]
Pressure (altimeter): 30.20 inches Hg (1022.8 mb)
[Sea-level pressure: 1017.4 mb]
Winds: from the SW (220 degrees) at 5 MPH (4 knots; 2.1 m/s)
Visibility: 10 or more miles (16+ km)
Ceiling: at least 12,000 feet AGL
Clouds: few clouds at 25000 feet AGL
Weather: no significant weather observed at this time

Forecast for: KABQ (ALBUQUERQUE , NM, US)
Text: KABQ 172320Z 1800/1824 VRB05KT P6SM SCT250
Forecast period: 0000 UTC 18 October 2017 to 0000 UTC 19 October 2017
Forecast type: FROM: standard forecast or significant change
Winds: variable direction winds at 6 MPH (5 knots; 2.6 m/s)
Visibility: 6 or more miles (10+ km)
Clouds: scattered clouds at 25000 feet AGL
Weather: no significant weather forecast for this period